Augusta, Michigan
Current Conditions -  °F | °C
As of 4:53 AM on Tuesday 27 Jan 2015 (Local Time) from KBTL Reporting Station
Overcast Overcast  
Wind Chill: 12°   Ceiling: 12000
Heat Index: 20°   Visibility: 10mi
Dew Point: 10°   Wind: 6mph
Humidity: 65%   Direction: 60°ENE
Pressure: 29.99"   Gusts: NA
Location:  42.34°N, 85.35°W
Report Text: KBTL 270953Z 06005KT 10SM OVC120 M07/M12 A2999 RMK AO2 SLP169 T10671122
Loading
Personal Weather Stations






























Interactive Weather Map New forecast layout! Learn more

10-Day Weather Forecast

Advertisements
Track Severe Weather on mobile